Time;durP1;ratioP1;P1;durP2;ratioP2;P2;SDS_P1;SDS_P2;PMS_P1;PMS_P2;Temp;Humidity;BMP_temperature;BMP_pressure;BME280_temperature;BME280_humidity;BME280_pressure;Samples;Min_cycle;Max_cycle;Signal;HPM_P1;HPM_P2
2022/01/23 00:02:06;;;;;;;28.27;19.85;;;;;;;6.53;100.00;101119.56;5130573;27;20193;-76
2022/01/23 00:04:33;;;;;;;29.42;19.50;;;;;;;6.45;100.00;101121.53;5113112;28;20183;-76
2022/01/23 00:07:03;;;;;;;28.77;18.20;;;;;;;6.45;100.00;101119.72;5124375;27;20274;-76
2022/01/23 00:09:30;;;;;;;33.30;19.90;;;;;;;6.56;100.00;101126.69;5132681;27;20310;-76
2022/01/23 00:11:58;;;;;;;29.63;19.80;;;;;;;6.60;100.00;101120.34;5131719;27;20282;-76
2022/01/23 00:17:18;;;;;;;32.53;20.25;;;;;;;6.80;100.00;101120.88;5125430;28;20209;-76
2022/01/23 00:19:45;;;;;;;27.95;19.20;;;;;;;6.77;100.00;101128.97;5132890;27;20536;-76
2022/01/23 00:22:14;;;;;;;30.50;20.95;;;;;;;6.63;100.00;101128.34;5132528;28;20791;-76
2022/01/23 00:30:24;;;;;;;28.45;18.40;;;;;;;6.40;100.00;101124.28;5126194;28;20256;-76
2022/01/23 00:32:51;;;;;;;28.90;19.35;;;;;;;6.38;100.00;101122.53;5132616;28;20186;-76
2022/01/23 00:35:19;;;;;;;32.55;20.30;;;;;;;6.30;100.00;101132.47;5132426;28;20222;-76
2022/01/23 00:37:47;;;;;;;34.13;21.23;;;;;;;6.26;100.00;101124.50;5122266;28;20636;-75
2022/01/23 00:40:14;;;;;;;29.15;20.30;;;;;;;6.31;100.00;101131.53;5132811;27;20668;-75
2022/01/23 00:42:41;;;;;;;34.30;21.60;;;;;;;6.25;100.00;101128.06;5131202;28;20628;-76
2022/01/23 00:45:26;;;;;;;29.55;19.52;;;;;;;6.04;100.00;101129.28;5132477;28;20215;-76
2022/01/23 00:47:55;;;;;;;25.63;18.20;;;;;;;6.05;100.00;101125.69;5132849;27;20194;-74
2022/01/23 00:50:22;;;;;;;25.60;18.90;;;;;;;6.04;100.00;101129.28;5136414;27;20189;-74
2022/01/23 00:52:50;;;;;;;32.53;21.13;;;;;;;6.20;100.00;101123.72;5136727;27;20589;-74
2022/01/23 00:55:17;;;;;;;30.00;19.02;;;;;;;6.01;100.00;101118.63;5135403;27;20285;-74
2022/01/23 00:57:43;;;;;;;30.95;20.00;;;;;;;6.00;100.00;101121.34;5135478;27;20298;-75
2022/01/23 01:00:11;;;;;;;30.75;19.20;;;;;;;5.80;100.00;101129.63;5136358;27;20187;-76
2022/01/23 01:02:38;;;;;;;29.60;18.60;;;;;;;5.98;100.00;101121.34;5136151;27;20194;-74
2022/01/23 01:05:05;;;;;;;28.25;19.25;;;;;;;6.02;100.00;101114.19;5133317;27;20281;-74
2022/01/23 01:07:32;;;;;;;28.98;18.40;;;;;;;6.41;100.00;101112.66;5134849;27;20201;-75
2022/01/23 01:10:07;;;;;;;39.55;20.50;;;;;;;6.15;100.00;101101.47;5136007;27;20229;-75
2022/01/23 01:12:38;;;;;;;31.63;20.00;;;;;;;6.38;100.00;101112.72;5135843;27;20202;-76
2022/01/23 01:31:42;;;;;;;33.55;19.55;;;;;;;6.44;100.00;101091.22;5130797;27;20235;-75
2022/01/23 01:34:13;;;;;;;35.92;20.80;;;;;;;6.21;100.00;101088.91;5135828;27;20519;-75
2022/01/23 01:36:47;;;;;;;28.63;19.00;;;;;;;6.36;100.00;101092.25;5129165;27;20533;-75
2022/01/23 01:39:15;;;;;;;26.73;18.40;;;;;;;6.25;100.00;101090.63;5135180;27;20187;-75
2022/01/23 01:41:44;;;;;;;28.17;19.88;;;;;;;6.25;100.00;101100.44;5135606;27;20174;-75
2022/01/23 01:44:12;;;;;;;30.17;19.00;;;;;;;5.94;100.00;101090.22;5135636;27;20186;-76
2022/01/23 01:46:39;;;;;;;32.58;20.10;;;;;;;6.33;100.00;101087.84;5134230;27;20190;-75
2022/01/23 01:49:07;;;;;;;26.77;18.95;;;;;;;6.05;100.00;101098.97;5135246;27;20266;-75
2022/01/23 01:51:34;;;;;;;31.30;20.92;;;;;;;5.90;100.00;101090.25;5128173;27;20187;-75
2022/01/23 01:54:08;;;;;;;29.85;19.40;;;;;;;6.00;100.00;101078.56;5135221;27;20218;-76
2022/01/23 01:56:46;;;;;;;30.60;20.40;;;;;;;5.84;100.00;101083.22;5124390;27;20212;-76
2022/01/23 01:59:23;;;;;;;29.40;18.88;;;;;;;6.05;100.00;101085.59;5134945;27;20642;-75
2022/01/23 02:10:04;;;;;;;31.20;20.33;;;;;;;6.19;100.00;101089.84;5134662;27;20291;-75
2022/01/23 02:15:42;;;;;;;28.42;19.92;;;;;;;5.84;100.00;101104.59;5132606;27;20183;-75
2022/01/23 02:18:24;;;;;;;31.92;19.30;;;;;;;5.62;100.00;101096.00;5134909;27;20206;-76
2022/01/23 02:51:12;;;;;;;30.08;20.05;;;;;;;5.98;100.00;101065.19;5134040;27;20197;-75
2022/01/23 02:54:05;;;;;;;30.38;20.05;;;;;;;6.03;100.00;101057.97;5133735;27;20247;-74
2022/01/23 02:56:35;;;;;;;45.63;29.60;;;;;;;6.32;100.00;101061.09;5123115;27;20195;-75
2022/01/23 02:59:12;;;;;;;36.38;19.15;;;;;;;6.04;100.00;101054.41;5134396;27;20202;-75
2022/01/23 03:01:48;;;;;;;35.33;21.83;;;;;;;6.04;100.00;101050.88;5133756;27;20196;-75
2022/01/23 03:04:20;;;;;;;28.40;19.83;;;;;;;6.00;100.00;101058.03;5126587;27;20221;-75
2022/01/23 03:06:57;;;;;;;32.92;19.52;;;;;;;6.06;100.00;101062.44;5133616;27;20193;-74
2022/01/23 03:12:40;;;;;;;33.72;21.20;;;;;;;5.99;100.00;101053.63;5125798;27;20319;-75
2022/01/23 03:15:05;;;;;;;29.08;18.02;;;;;;;5.96;100.00;101060.78;5130438;27;20598;-75
2022/01/23 03:26:09;;;;;;;28.83;19.20;;;;;;;5.76;100.00;101066.41;5111733;27;20202;-75
2022/01/23 03:28:39;;;;;;;30.30;19.90;;;;;;;5.45;100.00;101080.22;5133607;27;20285;-75
2022/01/23 03:31:20;;;;;;;31.30;21.15;;;;;;;5.30;100.00;101083.09;5125265;27;20178;-75
2022/01/23 03:33:47;;;;;;;30.27;19.65;;;;;;;5.47;100.00;101077.50;5133447;27;20275;-74
2022/01/23 03:36:14;;;;;;;29.77;18.90;;;;;;;5.58;100.00;101075.56;5133394;27;20239;-74
2022/01/23 03:38:41;;;;;;;29.17;18.77;;;;;;;5.59;100.00;101082.69;5133145;27;20668;-76
2022/01/23 03:41:10;;;;;;;33.60;20.05;;;;;;;5.75;100.00;101086.03;5130921;27;20187;-74
2022/01/23 03:43:38;;;;;;;32.40;20.38;;;;;;;5.61;100.00;101092.47;5133253;27;20199;-74
2022/01/23 03:46:23;;;;;;;30.20;20.17;;;;;;;5.48;100.00;101095.31;5133583;27;20715;-74
2022/01/23 03:51:37;;;;;;;26.95;18.52;;;;;;;5.53;100.00;101099.69;5132227;27;20244;-76
2022/01/23 03:54:04;;;;;;;30.88;19.23;;;;;;;5.47;100.00;101105.09;5133183;27;20581;-74
2022/01/23 03:56:32;;;;;;;30.83;19.27;;;;;;;5.64;100.00;101104.88;5131981;27;20216;-76
2022/01/23 03:58:59;;;;;;;29.98;18.63;;;;;;;5.83;100.00;101101.06;5132839;27;20215;-76
2022/01/23 04:01:26;;;;;;;26.77;18.13;;;;;;;5.81;100.00;101093.94;5132156;27;20616;-75
2022/01/23 04:03:56;;;;;;;27.65;18.67;;;;;;;5.74;100.00;101097.63;5133151;27;20196;-75
2022/01/23 04:06:23;;;;;;;31.30;18.95;;;;;;;6.10;100.00;101092.66;5127833;27;20540;-75
2022/01/23 04:08:50;;;;;;;30.00;18.30;;;;;;;5.64;100.00;101091.53;5124654;27;20244;-75
2022/01/23 04:11:16;;;;;;;25.15;17.02;;;;;;;5.49;100.00;101091.72;5133211;27;20269;-75
2022/01/23 04:13:48;;;;;;;26.98;18.00;;;;;;;5.68;100.00;101087.91;5132792;27;20691;-75
2022/01/23 04:16:37;;;;;;;28.00;19.50;;;;;;;5.61;100.00;101083.56;5132069;27;20187;-75
2022/01/23 04:33:23;;;;;;;31.70;19.83;;;;;;;5.95;100.00;101085.78;5126337;28;20181;-75
2022/01/23 05:00:47;;;;;;;31.70;18.42;;;;;;;5.56;100.00;101091.66;5132614;28;20226;-75
2022/01/23 05:06:03;;;;;;;34.60;19.83;;;;;;;5.80;100.00;101077.03;5131491;28;20232;-75
2022/01/23 05:08:33;;;;;;;29.85;19.15;;;;;;;6.02;100.00;101079.41;5132324;27;20218;-75
2022/01/23 05:11:00;;;;;;;28.98;18.73;;;;;;;6.07;100.00;101077.53;5132267;27;20190;-75
2022/01/23 05:13:28;;;;;;;24.08;17.17;;;;;;;6.05;100.00;101066.88;5132393;28;20211;-75
2022/01/23 05:15:55;;;;;;;25.40;17.92;;;;;;;6.24;100.00;101077.25;5129260;28;20199;-76
2022/01/23 05:18:24;;;;;;;27.58;19.00;;;;;;;6.30;100.00;101073.63;5132399;28;20299;-76
2022/01/23 05:21:01;;;;;;;29.73;18.77;;;;;;;6.17;100.00;101073.84;5132747;28;20699;-75
2022/01/23 05:23:28;;;;;;;26.50;17.80;;;;;;;6.44;100.00;101084.94;5132327;28;20191;-75
2022/01/23 05:25:55;;;;;;;28.00;19.20;;;;;;;6.05;100.00;101077.56;5131315;28;20233;-75
2022/01/23 05:28:21;;;;;;;26.67;17.48;;;;;;;5.89;100.00;101076.00;5132163;28;20216;-75
2022/01/23 05:30:49;;;;;;;26.63;17.77;;;;;;;6.24;100.00;101075.50;5131911;28;20271;-75
2022/01/23 05:33:15;;;;;;;28.85;18.92;;;;;;;6.18;100.00;101077.38;5132334;27;20199;-75
2022/01/23 05:35:43;;;;;;;27.75;18.15;;;;;;;5.94;100.00;101081.28;5134973;27;20217;-75
2022/01/23 05:38:10;;;;;;;30.05;18.67;;;;;;;5.88;100.00;101078.69;5135443;27;20237;-76
2022/01/23 05:40:39;;;;;;;30.35;18.85;;;;;;;5.58;100.00;101084.47;5135032;27;20201;-75
2022/01/23 05:43:05;;;;;;;29.38;17.83;;;;;;;5.54;100.00;101084.53;5135216;27;20206;-75
2022/01/23 05:45:33;;;;;;;27.35;19.48;;;;;;;5.58;100.00;101083.59;5134453;27;20694;-75
2022/01/23 05:48:00;;;;;;;28.45;17.90;;;;;;;5.52;100.00;101089.91;5135572;27;20231;-75
2022/01/23 05:50:27;;;;;;;27.50;19.50;;;;;;;5.59;100.00;101094.25;5135359;27;20199;-75
2022/01/23 05:52:55;;;;;;;29.70;19.80;;;;;;;5.31;100.00;101092.84;5135018;27;20195;-75
2022/01/23 05:55:21;;;;;;;30.83;19.02;;;;;;;5.52;100.00;101097.06;5126875;27;20194;-75
2022/01/23 05:57:48;;;;;;;34.42;19.40;;;;;;;5.43;100.00;101092.72;5135326;27;20220;-75
2022/01/23 06:00:16;;;;;;;28.77;19.00;;;;;;;5.53;100.00;101091.66;5135189;27;20189;-75
2022/01/23 06:02:42;;;;;;;25.23;17.75;;;;;;;5.62;100.00;101094.22;5134914;27;20187;-75
2022/01/23 06:05:09;;;;;;;29.50;18.25;;;;;;;5.43;100.00;101082.91;5128702;27;20614;-75
2022/01/23 06:07:36;;;;;;;24.67;17.35;;;;;;;5.33;100.00;101088.38;5135605;27;20201;-75
2022/01/23 06:10:04;;;;;;;30.55;18.88;;;;;;;5.43;100.00;101095.38;5134902;27;20272;-75
2022/01/23 06:12:31;;;;;;;26.58;18.67;;;;;;;5.34;100.00;101099.06;5135184;27;20309;-75
2022/01/23 06:14:58;;;;;;;27.95;18.52;;;;;;;5.24;100.00;101102.72;5134731;27;20191;-75
2022/01/23 06:17:24;;;;;;;26.27;18.25;;;;;;;5.39;100.00;101112.34;5135176;27;20309;-75
2022/01/23 06:19:51;;;;;;;32.20;18.50;;;;;;;5.47;100.00;101098.88;5134886;27;20202;-75
2022/01/23 06:22:18;;;;;;;27.88;18.58;;;;;;;5.92;100.00;101092.00;5135370;27;20214;-75
2022/01/23 06:24:47;;;;;;;23.52;17.55;;;;;;;5.83;100.00;101097.47;5133413;27;20194;-75
2022/01/23 06:27:15;;;;;;;28.88;16.95;;;;;;;5.69;100.00;101100.34;5135044;27;20254;-75
2022/01/23 06:29:44;;;;;;;26.42;17.80;;;;;;;5.54;100.00;101105.91;5134234;27;20202;-75
2022/01/23 06:32:12;;;;;;;26.75;17.17;;;;;;;5.60;100.00;101106.72;5126813;27;20274;-75
2022/01/23 06:34:39;;;;;;;28.80;19.15;;;;;;;5.40;100.00;101124.78;5134067;27;20197;-75
2022/01/23 06:37:06;;;;;;;26.95;17.35;;;;;;;5.35;100.00;101129.31;5126230;27;20190;-75
2022/01/23 06:39:33;;;;;;;28.67;19.27;;;;;;;5.47;100.00;101131.81;5132318;27;20198;-75
2022/01/23 06:42:00;;;;;;;23.30;16.85;;;;;;;5.57;100.00;101128.13;5134507;27;20190;-75
2022/01/23 06:44:28;;;;;;;24.42;16.85;;;;;;;5.41;100.00;101135.47;5134150;27;20197;-75
2022/01/23 06:46:54;;;;;;;22.42;15.73;;;;;;;5.21;100.00;101142.84;5134096;27;20205;-75
2022/01/23 06:49:21;;;;;;;25.40;17.90;;;;;;;5.30;100.00;101141.84;5132712;27;20265;-76
2022/01/23 06:51:49;;;;;;;26.65;17.52;;;;;;;5.10;100.00;101139.41;5130085;27;20198;-76
2022/01/23 06:54:15;;;;;;;30.75;17.50;;;;;;;5.30;100.00;101144.53;5133269;27;20544;-77
2022/01/23 06:56:42;;;;;;;25.48;17.77;;;;;;;5.58;100.00;101134.34;5129596;27;20640;-76
2022/01/23 06:59:10;;;;;;;25.25;17.25;;;;;;;5.69;100.00;101142.25;5133397;27;20731;-76
2022/01/23 07:01:38;;;;;;;26.55;17.30;;;;;;;5.75;100.00;101139.50;5133186;27;20281;-75
2022/01/23 07:04:05;;;;;;;21.30;16.85;;;;;;;5.46;100.00;101146.09;5132802;27;20217;-75
2022/01/23 07:06:32;;;;;;;25.63;16.38;;;;;;;5.42;100.00;101150.56;5133100;27;20251;-76
2022/01/23 07:08:58;;;;;;;21.00;15.73;;;;;;;5.38;100.00;101150.63;5132589;27;20227;-75
2022/01/23 07:11:25;;;;;;;22.23;15.32;;;;;;;5.35;100.00;101164.03;5133469;27;20667;-75
2022/01/23 07:13:52;;;;;;;26.85;16.50;;;;;;;5.28;100.00;101159.69;5133099;27;20195;-74
2022/01/23 07:16:18;;;;;;;24.77;15.95;;;;;;;5.18;100.00;101162.44;5133178;27;20182;-76
2022/01/23 07:18:46;;;;;;;24.10;16.45;;;;;;;5.44;100.00;101169.28;5133236;27;20210;-74
2022/01/23 07:21:13;;;;;;;27.02;16.80;;;;;;;5.36;100.00;101169.38;5133850;27;20201;-76
2022/01/23 07:23:40;;;;;;;25.77;17.00;;;;;;;5.36;100.00;101174.72;5133204;27;20187;-74
2022/01/23 07:26:07;;;;;;;28.80;17.73;;;;;;;5.52;100.00;101164.72;5138600;27;20196;-79
2022/01/23 07:28:38;;;;;;;25.30;16.20;;;;;;;5.68;100.00;101173.44;5138829;27;20199;-77
2022/01/23 07:31:07;;;;;;;26.63;16.80;;;;;;;5.59;100.00;101166.41;5133083;27;20688;-77
2022/01/23 07:33:36;;;;;;;29.27;16.60;;;;;;;5.41;100.00;101167.53;5132946;27;20200;-77
2022/01/23 07:36:04;;;;;;;24.90;16.55;;;;;;;5.49;100.00;101167.41;5132383;27;20197;-76
2022/01/23 07:38:32;;;;;;;24.52;16.23;;;;;;;5.52;100.00;101169.19;5132142;27;20199;-76
2022/01/23 07:40:59;;;;;;;27.27;17.38;;;;;;;5.48;100.00;101179.03;5132895;27;20620;-76
2022/01/23 07:43:25;;;;;;;24.83;16.40;;;;;;;5.64;100.00;101175.25;5132782;27;20182;-76
2022/01/23 07:45:52;;;;;;;26.38;18.10;;;;;;;5.47;100.00;101190.59;5133085;27;20282;-76
2022/01/23 07:48:19;;;;;;;25.38;16.92;;;;;;;5.37;100.00;101183.59;5132454;27;20600;-76
2022/01/23 07:50:45;;;;;;;23.92;16.42;;;;;;;5.42;100.00;101187.97;5132795;27;20189;-76
2022/01/23 07:53:13;;;;;;;24.67;16.67;;;;;;;5.38;100.00;101193.38;5132834;27;20604;-78
2022/01/23 07:55:40;;;;;;;24.55;16.70;;;;;;;5.44;100.00;101186.19;5125127;27;20290;-77
2022/01/23 07:58:12;;;;;;;25.17;17.63;;;;;;;5.64;100.00;101182.38;5132139;27;20216;-78
2022/01/23 08:00:40;;;;;;;25.20;17.38;;;;;;;5.71;100.00;101177.84;5132505;27;20224;-77
2022/01/23 08:03:07;;;;;;;21.95;15.77;;;;;;;5.80;100.00;101186.63;5129696;27;20285;-78
2022/01/23 08:05:34;;;;;;;24.88;17.85;;;;;;;5.82;100.00;101181.28;5132414;27;20982;-75
2022/01/23 08:08:00;;;;;;;24.35;17.00;;;;;;;5.72;100.00;101185.88;5131816;27;20197;-75
2022/01/23 08:10:29;;;;;;;24.27;17.30;;;;;;;5.57;100.00;101194.94;5131768;27;20620;-77
2022/01/23 08:12:55;;;;;;;25.30;16.33;;;;;;;5.52;100.00;101194.13;5132739;27;20956;-75
2022/01/23 08:15:22;;;;;;;28.48;17.30;;;;;;;5.59;100.00;101208.28;5131890;27;20194;-76
2022/01/23 08:17:49;;;;;;;24.70;17.35;;;;;;;5.58;100.00;101203.84;5132701;27;20199;-76
2022/01/23 08:20:16;;;;;;;24.80;16.75;;;;;;;5.52;100.00;101202.13;5132538;28;20241;-76
2022/01/23 08:22:43;;;;;;;24.73;17.05;;;;;;;5.49;100.00;101196.81;5132505;28;20272;-76
2022/01/23 08:25:10;;;;;;;24.08;16.88;;;;;;;5.77;100.00;101193.81;5127859;28;20258;-76
2022/01/23 08:27:38;;;;;;;26.92;17.63;;;;;;;5.92;100.00;101198.06;5124942;28;20319;-76
2022/01/23 08:30:06;;;;;;;24.80;16.45;;;;;;;5.77;100.00;101207.19;5132380;28;20182;-76
2022/01/23 08:32:32;;;;;;;24.55;16.75;;;;;;;5.68;100.00;101193.94;5130646;28;20201;-75
2022/01/23 08:34:59;;;;;;;24.23;16.75;;;;;;;5.61;100.00;101204.69;5127770;28;20285;-74
2022/01/23 08:37:26;;;;;;;24.08;15.77;;;;;;;5.46;100.00;101206.66;5131968;28;20217;-76
2022/01/23 08:39:53;;;;;;;29.08;17.92;;;;;;;5.57;100.00;101213.66;5131950;28;20290;-76
2022/01/23 08:42:20;;;;;;;25.90;17.05;;;;;;;5.63;100.00;101215.34;5131817;28;20640;-77
2022/01/23 08:44:49;;;;;;;23.02;16.58;;;;;;;5.49;100.00;101214.63;5126857;28;20204;-76
2022/01/23 08:47:16;;;;;;;24.23;16.98;;;;;;;5.74;100.00;101204.53;5131460;27;20187;-76
2022/01/23 08:49:46;;;;;;;30.00;17.83;;;;;;;5.88;100.00;101217.72;5129847;28;20273;-76
2022/01/23 08:52:16;;;;;;;28.90;17.05;;;;;;;5.74;100.00;101212.56;5129443;28;20188;-75
2022/01/23 08:54:45;;;;;;;27.42;16.80;;;;;;;5.76;100.00;101218.75;5131302;28;20206;-76
2022/01/23 08:57:12;;;;;;;22.80;15.93;;;;;;;5.93;100.00;101216.78;5131397;28;20209;-75
2022/01/23 08:59:39;;;;;;;28.48;17.85;;;;;;;5.82;100.00;101208.00;5131929;28;20217;-75
2022/01/23 09:02:07;;;;;;;28.20;18.38;;;;;;;5.81;100.00;101215.16;5131606;28;20260;-75
2022/01/23 09:04:33;;;;;;;25.63;16.95;;;;;;;5.84;100.00;101211.53;5132164;27;20202;-76
2022/01/23 09:07:00;;;;;;;26.60;17.80;;;;;;;5.88;100.00;101212.38;5131682;27;20198;-76
2022/01/23 09:09:31;;;;;;;26.10;17.10;;;;;;;5.94;100.00;101205.19;5132605;27;20232;-77
2022/01/23 09:12:03;;;;;;;29.35;19.02;;;;;;;5.95;100.00;101198.06;5135902;27;20183;-77
2022/01/23 09:14:31;;;;;;;25.92;17.25;;;;;;;6.08;100.00;101205.00;5131853;27;20190;-76
2022/01/23 09:16:59;;;;;;;26.27;16.63;;;;;;;6.05;100.00;101191.69;5130162;27;20287;-77
2022/01/23 09:19:27;;;;;;;25.55;19.00;;;;;;;5.89;100.00;101196.31;5115635;27;20203;-76
2022/01/23 09:21:55;;;;;;;27.27;18.63;;;;;;;6.02;100.00;101199.75;5135268;27;20564;-76
2022/01/23 09:24:24;;;;;;;26.67;18.02;;;;;;;6.31;100.00;101199.34;5135192;27;20247;-76
2022/01/23 09:26:54;;;;;;;22.65;16.98;;;;;;;6.26;99.64;101204.75;5135593;27;20278;-76
2022/01/23 09:29:30;;;;;;;25.13;16.58;;;;;;;6.25;98.14;101202.09;5133864;27;20620;-79
2022/01/23 09:31:57;;;;;;;26.15;15.50;;;;;;;6.30;96.44;101205.56;5127780;27;20197;-80
2022/01/23 09:34:26;;;;;;;18.92;13.20;;;;;;;6.32;95.58;101208.25;5117829;27;20291;-79
2022/01/23 09:36:55;;;;;;;28.67;17.60;;;;;;;6.15;96.68;101205.78;5135008;27;20601;-79
2022/01/23 09:39:23;;;;;;;19.40;14.25;;;;;;;6.09;96.90;101203.22;5134332;27;20266;-78
2022/01/23 09:41:57;;;;;;;22.10;14.88;;;;;;;6.15;96.81;101211.16;5133247;27;20960;-78
2022/01/23 09:44:25;;;;;;;23.73;15.02;;;;;;;6.23;95.93;101211.94;5115398;27;20196;-78
2022/01/23 09:46:52;;;;;;;22.95;14.60;;;;;;;6.08;97.81;101217.50;5133953;27;20183;-79
2022/01/23 09:49:19;;;;;;;22.98;15.85;;;;;;;6.43;95.35;101207.16;5129928;27;20274;-76
2022/01/23 09:51:49;;;;;;;20.92;15.20;;;;;;;6.32;95.63;101211.78;5122794;27;20447;-77
2022/01/23 09:54:18;;;;;;;23.63;16.20;;;;;;;6.42;95.40;101216.13;5131822;27;20280;-77
2022/01/23 09:56:45;;;;;;;23.33;17.17;;;;;;;6.43;94.82;101204.50;5135045;27;20229;-76
2022/01/23 09:59:12;;;;;;;22.70;15.57;;;;;;;6.48;94.70;101207.09;5128820;27;20294;-77
2022/01/23 10:01:41;;;;;;;22.13;14.95;;;;;;;6.72;92.75;101215.66;5133789;27;20512;-76
2022/01/23 10:04:08;;;;;;;24.85;16.15;;;;;;;6.68;91.87;101202.31;5128403;27;20197;-76
2022/01/23 10:06:34;;;;;;;21.50;14.45;;;;;;;6.65;91.98;101212.19;5134553;27;20194;-78
2022/01/23 10:09:02;;;;;;;21.02;14.38;;;;;;;6.45;92.54;101210.69;5118652;27;20314;-77
2022/01/23 10:11:35;;;;;;;20.05;14.50;;;;;;;6.54;92.95;101209.69;5114418;28;20195;-78
2022/01/23 10:14:02;;;;;;;22.42;14.15;;;;;;;6.49;92.90;101200.84;5122977;27;20240;-78
2022/01/23 10:16:29;;;;;;;19.83;14.40;;;;;;;6.51;91.75;101190.97;5134781;27;20224;-76
2022/01/23 10:18:57;;;;;;;20.92;13.25;;;;;;;6.83;89.71;101195.81;5133380;27;20194;-76
2022/01/23 10:21:25;;;;;;;21.55;16.00;;;;;;;7.04;88.93;101196.34;5133171;27;20675;-79
2022/01/23 10:23:53;;;;;;;24.13;15.90;;;;;;;7.37;86.47;101193.94;5134588;27;20209;-76
2022/01/23 10:26:39;;;;;;;20.50;14.10;;;;;;;7.48;85.10;101189.25;5134368;27;20187;-76
2022/01/23 10:29:17;;;;;;;22.65;14.07;;;;;;;7.38;85.04;101177.81;5133510;27;20191;-76
2022/01/23 10:32:07;;;;;;;21.40;15.40;;;;;;;7.32;85.21;101178.81;5132684;27;20183;-76
2022/01/23 10:34:51;;;;;;;19.73;14.25;;;;;;;7.63;82.68;101182.69;5114553;27;20283;-76
2022/01/23 10:37:31;;;;;;;16.92;12.15;;;;;;;7.45;81.82;101190.19;5120075;27;20625;-77
2022/01/23 10:40:00;;;;;;;23.70;13.75;;;;;;;7.79;79.87;101183.25;5133747;27;20291;-76
2022/01/23 10:48:35;;;;;;;20.77;13.10;;;;;;;7.65;80.34;101168.34;5133273;27;20182;-77
2022/01/23 10:51:15;;;;;;;18.92;12.48;;;;;;;7.44;80.23;101172.34;5133736;27;20676;-76
2022/01/23 10:54:01;;;;;;;15.60;11.80;;;;;;;7.39;78.88;101178.72;5133964;27;20593;-77
2022/01/23 10:56:29;;;;;;;16.63;11.85;;;;;;;7.24;79.54;101172.75;5131278;27;20238;-76
2022/01/23 10:59:02;;;;;;;13.73;10.70;;;;;;;7.58;78.01;101168.50;5133341;27;20243;-76
2022/01/23 11:01:29;;;;;;;16.50;10.93;;;;;;;7.24;78.79;101158.47;5132500;27;20317;-77
2022/01/23 11:04:07;;;;;;;16.55;10.95;;;;;;;7.37;79.45;101169.81;5134019;27;20202;-77
2022/01/23 11:06:34;;;;;;;19.27;11.35;;;;;;;7.20;79.83;101170.16;5134013;27;20513;-77
2022/01/23 11:09:08;;;;;;;16.13;11.05;;;;;;;7.13;80.42;101166.72;5132602;27;20253;-78
2022/01/23 11:11:43;;;;;;;20.33;11.20;;;;;;;7.20;81.10;101168.34;5132428;27;20194;-78
2022/01/23 11:19:46;;;;;;;15.20;10.18;;;;;;;7.58;77.35;101157.78;5122602;27;20245;-76
2022/01/23 11:22:17;;;;;;;21.38;12.35;;;;;;;7.63;78.58;101161.25;5110846;27;64273;-78
2022/01/23 11:24:47;;;;;;;22.98;12.80;;;;;;;7.77;76.76;101156.47;5082206;28;20196;-76
2022/01/23 11:27:15;;;;;;;15.85;11.75;;;;;;;7.52;77.67;101148.06;5078881;28;20181;-78
2022/01/23 11:30:05;;;;;;;17.33;11.10;;;;;;;7.80;76.22;101152.81;5080993;28;20276;-76
2022/01/23 11:32:37;;;;;;;22.33;11.63;;;;;;;7.75;76.00;101152.94;5078742;28;20560;-75
2022/01/23 11:35:08;;;;;;;26.20;14.63;;;;;;;8.09;75.26;101150.38;5083712;28;20203;-75
2022/01/23 11:37:36;;;;;;;21.17;14.02;;;;;;;8.41;73.29;101158.59;5079993;28;20197;-75
2022/01/23 11:40:20;;;;;;;22.77;13.35;;;;;;;8.35;71.78;101141.72;5082775;28;20217;-76
2022/01/23 11:54:14;;;;;;;18.17;10.57;;;;;;;8.54;67.66;101147.53;5075022;28;20180;-74
2022/01/23 11:56:44;;;;;;;14.15;9.18;;;;;;;8.69;66.21;101146.28;5082784;28;20196;-74
2022/01/23 11:59:22;;;;;;;13.48;10.07;;;;;;;8.14;68.12;101136.88;5079730;28;20272;-74
2022/01/23 12:02:20;;;;;;;11.82;8.55;;;;;;;8.31;68.16;101128.41;5077556;28;21067;-76
2022/01/23 12:05:22;;;;;;;18.42;10.95;;;;;;;7.93;70.17;101117.66;5081449;28;20203;-75
2022/01/23 12:08:27;;;;;;;14.85;10.35;;;;;;;8.26;69.37;101125.84;5079941;28;20702;-77
2022/01/23 12:17:13;;;;;;;17.20;10.00;;;;;;;7.85;70.62;101119.66;5080283;28;20203;-75
2022/01/23 12:19:52;;;;;;;12.02;9.02;;;;;;;7.79;70.86;101113.53;5081587;28;20316;-75
2022/01/23 12:22:25;;;;;;;17.77;9.85;;;;;;;7.85;69.37;101116.09;5080966;28;20198;-74
2022/01/23 12:24:54;;;;;;;22.23;11.77;;;;;;;8.16;67.72;101121.59;5085314;28;20602;-74
2022/01/23 12:27:24;;;;;;;11.23;8.50;;;;;;;8.28;65.60;101115.06;5080552;28;20734;-75
2022/01/23 12:29:51;;;;;;;20.30;11.23;;;;;;;8.38;66.47;101110.34;5086523;28;20264;-76
2022/01/23 12:32:26;;;;;;;19.98;13.00;;;;;;;8.57;65.21;101103.63;5079712;28;20189;-75
2022/01/23 12:34:54;;;;;;;14.27;9.43;;;;;;;8.09;65.95;101107.44;5078562;28;20199;-75
2022/01/23 12:37:21;;;;;;;14.43;10.20;;;;;;;8.22;66.07;101104.47;5083670;28;20321;-75
2022/01/23 12:40:23;;;;;;;13.40;10.23;;;;;;;7.94;68.83;101094.41;5089095;28;20287;-75
2022/01/23 12:43:07;;;;;;;15.40;10.63;;;;;;;8.07;68.20;101087.84;5090594;28;20187;-75
2022/01/23 12:46:02;;;;;;;14.48;9.60;;;;;;;8.29;67.46;101089.97;5091529;28;20302;-76
2022/01/23 12:48:48;;;;;;;16.05;9.27;;;;;;;8.34;67.34;101078.22;5080970;28;20185;-74
2022/01/23 12:51:33;;;;;;;15.80;10.57;;;;;;;8.62;65.11;101069.47;5093395;28;20187;-74
2022/01/23 12:54:30;;;;;;;21.55;10.30;;;;;;;8.70;63.17;101072.81;5092901;28;20753;-77
2022/01/23 12:57:06;;;;;;;15.68;9.60;;;;;;;8.72;62.78;101065.63;5087608;28;20228;-77
2022/01/23 12:59:35;;;;;;;14.38;10.52;;;;;;;8.76;62.48;101058.38;5088904;28;20276;-77
2022/01/23 13:02:07;;;;;;;14.25;10.50;;;;;;;8.80;62.97;101059.19;5084362;28;20223;-77
2022/01/23 13:04:40;;;;;;;23.40;12.00;;;;;;;8.87;62.37;101061.63;5087674;28;20194;-76
2022/01/23 13:07:30;;;;;;;12.13;9.13;;;;;;;8.79;63.09;101060.97;5085553;28;20213;-76
2022/01/23 13:10:07;;;;;;;12.52;9.50;;;;;;;8.75;63.32;101062.88;5079290;28;20591;-76
2022/01/23 13:12:49;;;;;;;24.38;11.43;;;;;;;8.53;64.62;101070.59;5091632;28;20187;-76
2022/01/23 13:15:46;;;;;;;15.32;10.43;;;;;;;8.50;64.54;101072.47;5085379;28;20593;-76
2022/01/23 13:18:31;;;;;;;13.75;9.88;;;;;;;8.57;64.96;101063.38;5089150;28;20203;-76
2022/01/23 13:32:04;;;;;;;13.63;9.48;;;;;;;8.31;64.63;101066.69;5095255;28;20177;-76
2022/01/23 13:34:34;;;;;;;18.83;10.50;;;;;;;8.17;66.61;101066.16;5095321;28;20536;-76
2022/01/23 13:37:06;;;;;;;14.55;9.95;;;;;;;8.36;63.88;101059.38;5089233;28;20296;-76
2022/01/23 13:39:38;;;;;;;16.67;10.80;;;;;;;8.41;63.20;101059.28;5075081;28;20183;-77
2022/01/23 13:42:18;;;;;;;29.23;18.95;;;;;;;8.47;62.44;101045.72;5086662;28;20701;-76
2022/01/23 13:53:50;;;;;;;23.77;12.50;;;;;;;7.64;69.87;101045.03;5092426;28;20193;-76
2022/01/23 13:59:11;;;;;;;15.10;10.70;;;;;;;8.04;68.96;101042.28;5094471;28;20201;-76
2022/01/23 14:01:53;;;;;;;18.95;12.93;;;;;;;8.14;69.23;101041.16;5093792;28;20232;-76
2022/01/23 14:04:22;;;;;;;15.35;10.18;;;;;;;8.11;66.96;101040.34;5085592;28;20696;-76
2022/01/23 14:06:49;;;;;;;14.98;9.27;;;;;;;8.18;63.33;101047.31;5091510;28;20283;-76
2022/01/23 14:09:18;;;;;;;16.33;11.63;;;;;;;8.09;63.78;101050.22;5093943;28;20646;-76
2022/01/23 14:11:46;;;;;;;14.00;9.57;;;;;;;7.98;63.70;101049.59;5094971;28;20219;-76
2022/01/23 14:14:17;;;;;;;18.27;10.85;;;;;;;8.24;63.88;101049.84;5094469;28;20210;-77
2022/01/23 14:16:46;;;;;;;19.13;11.50;;;;;;;8.20;65.48;101049.97;5093775;28;20279;-77
2022/01/23 14:19:18;;;;;;;17.55;10.18;;;;;;;8.27;66.02;101048.88;5094467;28;20191;-74
2022/01/23 14:21:47;;;;;;;18.33;10.43;;;;;;;8.12;67.55;101050.16;5080776;28;20209;-74
2022/01/23 14:24:23;;;;;;;19.00;11.93;;;;;;;8.00;67.98;101045.97;5074158;28;20269;-74